sensor_id;sensor_type;location;lat;lon;timestamp;P1;durP1;ratioP1;P2;durP2;ratioP2
4420;SDS011;11824;51.178;13.546;2022-09-01T00:02:29;5.17;;;4.67;;
4420;SDS011;11824;51.178;13.546;2022-09-01T00:04:59;5.17;;;4.43;;
4420;SDS011;11824;51.178;13.546;2022-09-01T00:07:29;10.10;;;5.30;;
4420;SDS011;11824;51.178;13.546;2022-09-01T00:10:01;6.37;;;5.50;;
4420;SDS011;11824;51.178;13.546;2022-09-01T00:12:33;5.60;;;5.07;;
4420;SDS011;11824;51.178;13.546;2022-09-01T00:15:03;6.00;;;5.50;;
4420;SDS011;11824;51.178;13.546;2022-09-01T00:17:33;9.20;;;5.53;;
4420;SDS011;11824;51.178;13.546;2022-09-01T00:20:03;5.97;;;4.83;;
4420;SDS011;11824;51.178;13.546;2022-09-01T00:22:33;11.80;;;5.50;;
4420;SDS011;11824;51.178;13.546;2022-09-01T00:25:02;7.57;;;4.60;;
4420;SDS011;11824;51.178;13.546;2022-09-01T00:27:31;12.50;;;5.30;;
4420;SDS011;11824;51.178;13.546;2022-09-01T00:30:00;6.73;;;5.43;;
4420;SDS011;11824;51.178;13.546;2022-09-01T00:32:29;6.20;;;4.77;;
4420;SDS011;11824;51.178;13.546;2022-09-01T00:34:58;6.63;;;5.53;;
4420;SDS011;11824;51.178;13.546;2022-09-01T00:37:28;8.20;;;4.93;;
4420;SDS011;11824;51.178;13.546;2022-09-01T00:39:57;7.07;;;5.43;;
4420;SDS011;11824;51.178;13.546;2022-09-01T00:42:26;6.80;;;4.90;;
4420;SDS011;11824;51.178;13.546;2022-09-01T00:44:54;7.30;;;6.00;;
4420;SDS011;11824;51.178;13.546;2022-09-01T00:47:23;6.77;;;6.07;;
4420;SDS011;11824;51.178;13.546;2022-09-01T00:49:52;8.47;;;6.30;;
4420;SDS011;11824;51.178;13.546;2022-09-01T00:52:22;6.90;;;5.87;;
4420;SDS011;11824;51.178;13.546;2022-09-01T00:55:00;7.00;;;5.47;;
4420;SDS011;11824;51.178;13.546;2022-09-01T00:57:34;6.83;;;6.20;;
4420;SDS011;11824;51.178;13.546;2022-09-01T01:00:04;8.20;;;6.20;;
4420;SDS011;11824;51.178;13.546;2022-09-01T01:02:36;9.30;;;6.43;;
4420;SDS011;11824;51.178;13.546;2022-09-01T01:05:07;6.83;;;6.03;;
4420;SDS011;11824;51.178;13.546;2022-09-01T01:07:40;14.03;;;7.50;;
4420;SDS011;11824;51.178;13.546;2022-09-01T01:10:16;6.20;;;5.27;;
4420;SDS011;11824;51.178;13.546;2022-09-01T01:12:47;9.63;;;6.30;;
4420;SDS011;11824;51.178;13.546;2022-09-01T01:15:17;9.03;;;5.73;;
4420;SDS011;11824;51.178;13.546;2022-09-01T01:17:46;8.83;;;6.27;;
4420;SDS011;11824;51.178;13.546;2022-09-01T01:20:15;8.70;;;7.47;;
4420;SDS011;11824;51.178;13.546;2022-09-01T01:23:05;9.40;;;6.40;;
4420;SDS011;11824;51.178;13.546;2022-09-01T01:25:43;9.30;;;6.17;;
4420;SDS011;11824;51.178;13.546;2022-09-01T01:28:15;7.60;;;6.23;;
4420;SDS011;11824;51.178;13.546;2022-09-01T01:30:47;7.47;;;5.50;;
4420;SDS011;11824;51.178;13.546;2022-09-01T01:33:18;10.43;;;6.30;;
4420;SDS011;11824;51.178;13.546;2022-09-01T01:35:48;8.80;;;6.23;;
4420;SDS011;11824;51.178;13.546;2022-09-01T01:38:18;6.87;;;6.27;;
4420;SDS011;11824;51.178;13.546;2022-09-01T01:40:50;9.80;;;6.20;;
4420;SDS011;11824;51.178;13.546;2022-09-01T01:43:21;9.83;;;6.43;;
4420;SDS011;11824;51.178;13.546;2022-09-01T01:45:52;12.43;;;6.80;;
4420;SDS011;11824;51.178;13.546;2022-09-01T01:48:24;9.20;;;6.53;;
4420;SDS011;11824;51.178;13.546;2022-09-01T01:50:53;7.07;;;6.40;;
4420;SDS011;11824;51.178;13.546;2022-09-01T01:53:24;7.70;;;6.70;;
4420;SDS011;11824;51.178;13.546;2022-09-01T01:55:55;8.17;;;5.90;;
4420;SDS011;11824;51.178;13.546;2022-09-01T01:58:25;7.20;;;5.07;;
4420;SDS011;11824;51.178;13.546;2022-09-01T02:00:56;10.33;;;6.30;;
4420;SDS011;11824;51.178;13.546;2022-09-01T02:03:26;9.07;;;5.80;;
4420;SDS011;11824;51.178;13.546;2022-09-01T02:06:01;12.33;;;6.20;;
4420;SDS011;11824;51.178;13.546;2022-09-01T02:08:33;8.50;;;6.23;;
4420;SDS011;11824;51.178;13.546;2022-09-01T02:11:05;10.90;;;6.50;;
4420;SDS011;11824;51.178;13.546;2022-09-01T02:13:35;8.83;;;6.27;;
4420;SDS011;11824;51.178;13.546;2022-09-01T02:16:04;8.97;;;6.77;;
4420;SDS011;11824;51.178;13.546;2022-09-01T02:18:38;17.13;;;6.57;;
4420;SDS011;11824;51.178;13.546;2022-09-01T02:21:10;5.90;;;5.40;;
4420;SDS011;11824;51.178;13.546;2022-09-01T02:23:45;7.47;;;5.53;;
4420;SDS011;11824;51.178;13.546;2022-09-01T02:26:16;7.40;;;5.67;;
4420;SDS011;11824;51.178;13.546;2022-09-01T02:28:49;6.97;;;5.57;;
4420;SDS011;11824;51.178;13.546;2022-09-01T02:31:21;8.53;;;5.70;;
4420;SDS011;11824;51.178;13.546;2022-09-01T02:33:51;5.67;;;5.07;;
4420;SDS011;11824;51.178;13.546;2022-09-01T02:36:20;12.07;;;5.47;;
4420;SDS011;11824;51.178;13.546;2022-09-01T02:38:51;6.20;;;5.30;;
4420;SDS011;11824;51.178;13.546;2022-09-01T02:41:23;6.27;;;5.60;;
4420;SDS011;11824;51.178;13.546;2022-09-01T02:44:00;9.43;;;5.30;;
4420;SDS011;11824;51.178;13.546;2022-09-01T02:46:37;12.57;;;6.10;;
4420;SDS011;11824;51.178;13.546;2022-09-01T02:49:09;7.33;;;6.10;;
4420;SDS011;11824;51.178;13.546;2022-09-01T02:51:43;11.67;;;5.70;;
4420;SDS011;11824;51.178;13.546;2022-09-01T02:54:14;9.00;;;6.10;;
4420;SDS011;11824;51.178;13.546;2022-09-01T02:56:45;9.13;;;5.30;;
4420;SDS011;11824;51.178;13.546;2022-09-01T02:59:15;11.63;;;5.77;;
4420;SDS011;11824;51.178;13.546;2022-09-01T03:01:47;23.00;;;6.80;;
4420;SDS011;11824;51.178;13.546;2022-09-01T03:04:17;10.47;;;6.77;;
4420;SDS011;11824;51.178;13.546;2022-09-01T03:06:47;10.77;;;6.07;;
4420;SDS011;11824;51.178;13.546;2022-09-01T03:09:20;7.27;;;5.37;;
4420;SDS011;11824;51.178;13.546;2022-09-01T03:11:51;8.03;;;5.33;;
4420;SDS011;11824;51.178;13.546;2022-09-01T03:14:21;9.13;;;5.50;;
4420;SDS011;11824;51.178;13.546;2022-09-01T03:16:51;11.97;;;5.63;;
4420;SDS011;11824;51.178;13.546;2022-09-01T03:19:20;6.97;;;6.07;;
4420;SDS011;11824;51.178;13.546;2022-09-01T03:21:49;7.60;;;5.10;;
4420;SDS011;11824;51.178;13.546;2022-09-01T03:24:18;9.73;;;5.83;;
4420;SDS011;11824;51.178;13.546;2022-09-01T03:26:49;7.43;;;5.70;;
4420;SDS011;11824;51.178;13.546;2022-09-01T03:29:19;6.60;;;5.00;;
4420;SDS011;11824;51.178;13.546;2022-09-01T03:31:48;8.40;;;6.57;;
4420;SDS011;11824;51.178;13.546;2022-09-01T03:34:17;11.23;;;6.70;;
4420;SDS011;11824;51.178;13.546;2022-09-01T03:36:47;6.97;;;5.80;;
4420;SDS011;11824;51.178;13.546;2022-09-01T03:39:16;6.73;;;5.37;;
4420;SDS011;11824;51.178;13.546;2022-09-01T03:41:46;6.57;;;5.80;;
4420;SDS011;11824;51.178;13.546;2022-09-01T03:44:16;7.53;;;5.37;;
4420;SDS011;11824;51.178;13.546;2022-09-01T03:46:45;9.33;;;6.30;;
4420;SDS011;11824;51.178;13.546;2022-09-01T03:49:14;7.73;;;6.00;;
4420;SDS011;11824;51.178;13.546;2022-09-01T03:51:53;11.27;;;6.03;;
4420;SDS011;11824;51.178;13.546;2022-09-01T03:54:22;13.00;;;5.97;;
4420;SDS011;11824;51.178;13.546;2022-09-01T03:56:55;12.80;;;6.87;;
4420;SDS011;11824;51.178;13.546;2022-09-01T03:59:28;6.30;;;5.70;;
4420;SDS011;11824;51.178;13.546;2022-09-01T04:01:57;11.13;;;5.53;;
4420;SDS011;11824;51.178;13.546;2022-09-01T04:04:28;14.20;;;6.40;;
4420;SDS011;11824;51.178;13.546;2022-09-01T04:06:58;7.30;;;6.40;;
4420;SDS011;11824;51.178;13.546;2022-09-01T04:09:27;7.80;;;6.53;;
4420;SDS011;11824;51.178;13.546;2022-09-01T04:11:56;6.80;;;5.80;;
4420;SDS011;11824;51.178;13.546;2022-09-01T04:14:25;17.20;;;6.60;;
4420;SDS011;11824;51.178;13.546;2022-09-01T04:16:56;10.60;;;7.53;;
4420;SDS011;11824;51.178;13.546;2022-09-01T04:19:41;10.93;;;5.70;;
4420;SDS011;11824;51.178;13.546;2022-09-01T04:22:11;7.07;;;4.90;;
4420;SDS011;11824;51.178;13.546;2022-09-01T04:24:41;6.70;;;5.63;;
4420;SDS011;11824;51.178;13.546;2022-09-01T04:27:12;17.10;;;5.50;;
4420;SDS011;11824;51.178;13.546;2022-09-01T04:29:56;7.83;;;4.60;;
4420;SDS011;11824;51.178;13.546;2022-09-01T04:32:26;8.97;;;5.50;;
4420;SDS011;11824;51.178;13.546;2022-09-01T04:34:56;11.30;;;5.67;;
4420;SDS011;11824;51.178;13.546;2022-09-01T04:37:25;11.80;;;5.90;;
4420;SDS011;11824;51.178;13.546;2022-09-01T04:39:55;8.13;;;5.47;;
4420;SDS011;11824;51.178;13.546;2022-09-01T04:42:25;12.67;;;5.97;;
4420;SDS011;11824;51.178;13.546;2022-09-01T04:44:59;5.57;;;5.07;;
4420;SDS011;11824;51.178;13.546;2022-09-01T04:47:35;9.87;;;6.00;;
4420;SDS011;11824;51.178;13.546;2022-09-01T04:50:08;6.20;;;5.07;;
4420;SDS011;11824;51.178;13.546;2022-09-01T04:52:42;11.90;;;6.17;;
4420;SDS011;11824;51.178;13.546;2022-09-01T04:55:13;7.80;;;6.33;;
4420;SDS011;11824;51.178;13.546;2022-09-01T04:57:44;23.73;;;9.27;;
4420;SDS011;11824;51.178;13.546;2022-09-01T05:00:18;23.23;;;8.40;;
4420;SDS011;11824;51.178;13.546;2022-09-01T05:02:52;43.53;;;20.60;;
4420;SDS011;11824;51.178;13.546;2022-09-01T05:05:35;17.53;;;9.90;;
4420;SDS011;11824;51.178;13.546;2022-09-01T05:08:08;18.53;;;9.80;;
4420;SDS011;11824;51.178;13.546;2022-09-01T05:10:49;13.57;;;8.93;;
4420;SDS011;11824;51.178;13.546;2022-09-01T05:13:21;8.00;;;7.20;;
4420;SDS011;11824;51.178;13.546;2022-09-01T05:16:03;8.13;;;6.03;;
4420;SDS011;11824;51.178;13.546;2022-09-01T05:18:38;10.33;;;5.73;;
4420;SDS011;11824;51.178;13.546;2022-09-01T05:21:10;15.10;;;6.07;;
4420;SDS011;11824;51.178;13.546;2022-09-01T05:23:41;8.27;;;5.53;;
4420;SDS011;11824;51.178;13.546;2022-09-01T05:26:12;10.73;;;5.00;;
4420;SDS011;11824;51.178;13.546;2022-09-01T05:28:43;15.13;;;5.60;;
4420;SDS011;11824;51.178;13.546;2022-09-01T05:31:15;5.43;;;4.93;;
4420;SDS011;11824;51.178;13.546;2022-09-01T05:33:45;10.53;;;4.70;;
4420;SDS011;11824;51.178;13.546;2022-09-01T05:36:16;11.37;;;5.77;;
4420;SDS011;11824;51.178;13.546;2022-09-01T05:38:48;13.60;;;6.97;;
4420;SDS011;11824;51.178;13.546;2022-09-01T05:41:18;19.43;;;5.63;;
4420;SDS011;11824;51.178;13.546;2022-09-01T05:43:49;10.10;;;4.83;;
4420;SDS011;11824;51.178;13.546;2022-09-01T05:46:27;8.33;;;4.90;;
4420;SDS011;11824;51.178;13.546;2022-09-01T05:48:56;12.40;;;4.43;;
4420;SDS011;11824;51.178;13.546;2022-09-01T05:51:25;7.67;;;5.37;;
4420;SDS011;11824;51.178;13.546;2022-09-01T05:54:11;6.30;;;5.70;;
4420;SDS011;11824;51.178;13.546;2022-09-01T05:56:40;11.83;;;6.13;;
4420;SDS011;11824;51.178;13.546;2022-09-01T05:59:10;9.10;;;4.40;;
4420;SDS011;11824;51.178;13.546;2022-09-01T06:01:50;4.73;;;4.33;;
4420;SDS011;11824;51.178;13.546;2022-09-01T06:04:20;4.97;;;4.40;;
4420;SDS011;11824;51.178;13.546;2022-09-01T06:06:52;5.90;;;4.33;;
4420;SDS011;11824;51.178;13.546;2022-09-01T06:09:33;12.00;;;4.03;;
4420;SDS011;11824;51.178;13.546;2022-09-01T06:12:04;13.10;;;4.00;;
4420;SDS011;11824;51.178;13.546;2022-09-01T06:14:34;7.17;;;3.57;;
4420;SDS011;11824;51.178;13.546;2022-09-01T06:17:09;8.57;;;4.20;;
4420;SDS011;11824;51.178;13.546;2022-09-01T06:19:42;7.20;;;3.33;;
4420;SDS011;11824;51.178;13.546;2022-09-01T06:22:14;8.97;;;4.20;;
4420;SDS011;11824;51.178;13.546;2022-09-01T06:24:44;5.37;;;4.50;;
4420;SDS011;11824;51.178;13.546;2022-09-01T06:27:20;5.03;;;3.87;;
4420;SDS011;11824;51.178;13.546;2022-09-01T06:29:49;8.20;;;4.03;;
4420;SDS011;11824;51.178;13.546;2022-09-01T06:32:20;5.00;;;3.70;;
4420;SDS011;11824;51.178;13.546;2022-09-01T06:34:51;4.73;;;4.33;;
4420;SDS011;11824;51.178;13.546;2022-09-01T06:37:23;10.83;;;4.20;;
4420;SDS011;11824;51.178;13.546;2022-09-01T06:39:54;4.63;;;4.00;;
4420;SDS011;11824;51.178;13.546;2022-09-01T06:42:23;9.80;;;4.07;;
4420;SDS011;11824;51.178;13.546;2022-09-01T06:44:52;4.30;;;3.90;;
4420;SDS011;11824;51.178;13.546;2022-09-01T06:47:22;7.80;;;3.40;;
4420;SDS011;11824;51.178;13.546;2022-09-01T06:49:53;8.30;;;4.47;;
4420;SDS011;11824;51.178;13.546;2022-09-01T06:52:24;7.63;;;4.00;;
4420;SDS011;11824;51.178;13.546;2022-09-01T06:54:53;4.20;;;3.90;;
4420;SDS011;11824;51.178;13.546;2022-09-01T06:57:23;5.50;;;4.20;;
4420;SDS011;11824;51.178;13.546;2022-09-01T07:00:13;8.17;;;3.47;;
4420;SDS011;11824;51.178;13.546;2022-09-01T07:02:50;7.67;;;3.57;;
4420;SDS011;11824;51.178;13.546;2022-09-01T07:05:22;7.03;;;4.30;;
4420;SDS011;11824;51.178;13.546;2022-09-01T07:08:12;14.23;;;4.30;;
4420;SDS011;11824;51.178;13.546;2022-09-01T07:10:46;5.00;;;3.30;;
4420;SDS011;11824;51.178;13.546;2022-09-01T07:13:36;11.47;;;4.70;;
4420;SDS011;11824;51.178;13.546;2022-09-01T07:16:25;8.13;;;4.20;;
4420;SDS011;11824;51.178;13.546;2022-09-01T07:19:02;6.60;;;4.13;;
4420;SDS011;11824;51.178;13.546;2022-09-01T07:21:32;4.33;;;3.50;;
4420;SDS011;11824;51.178;13.546;2022-09-01T07:24:06;9.40;;;4.00;;
4420;SDS011;11824;51.178;13.546;2022-09-01T07:26:37;8.60;;;4.10;;
4420;SDS011;11824;51.178;13.546;2022-09-01T07:29:14;7.50;;;4.10;;
4420;SDS011;11824;51.178;13.546;2022-09-01T07:31:49;11.23;;;4.10;;
4420;SDS011;11824;51.178;13.546;2022-09-01T07:34:42;6.27;;;4.20;;
4420;SDS011;11824;51.178;13.546;2022-09-01T07:37:15;6.77;;;3.70;;
4420;SDS011;11824;51.178;13.546;2022-09-01T07:40:09;10.70;;;3.93;;
4420;SDS011;11824;51.178;13.546;2022-09-01T07:43:04;5.07;;;3.80;;
4420;SDS011;11824;51.178;13.546;2022-09-01T07:45:35;5.17;;;4.23;;
4420;SDS011;11824;51.178;13.546;2022-09-01T07:48:24;5.17;;;3.93;;
4420;SDS011;11824;51.178;13.546;2022-09-01T07:51:16;12.57;;;4.67;;
4420;SDS011;11824;51.178;13.546;2022-09-01T07:54:03;4.13;;;3.10;;
4420;SDS011;11824;51.178;13.546;2022-09-01T07:56:33;4.23;;;3.20;;
4420;SDS011;11824;51.178;13.546;2022-09-01T07:59:05;6.23;;;3.70;;
4420;SDS011;11824;51.178;13.546;2022-09-01T08:01:40;8.43;;;3.53;;
4420;SDS011;11824;51.178;13.546;2022-09-01T08:04:09;5.93;;;3.80;;
4420;SDS011;11824;51.178;13.546;2022-09-01T08:06:39;7.10;;;3.97;;
4420;SDS011;11824;51.178;13.546;2022-09-01T08:09:08;6.57;;;4.03;;
4420;SDS011;11824;51.178;13.546;2022-09-01T08:11:59;9.53;;;3.87;;
4420;SDS011;11824;51.178;13.546;2022-09-01T08:14:28;7.03;;;3.73;;
4420;SDS011;11824;51.178;13.546;2022-09-01T08:16:59;4.90;;;4.27;;
4420;SDS011;11824;51.178;13.546;2022-09-01T08:19:42;7.07;;;3.83;;
4420;SDS011;11824;51.178;13.546;2022-09-01T08:22:13;7.23;;;4.43;;
4420;SDS011;11824;51.178;13.546;2022-09-01T08:24:42;7.20;;;4.00;;
4420;SDS011;11824;51.178;13.546;2022-09-01T08:27:11;5.57;;;4.00;;
4420;SDS011;11824;51.178;13.546;2022-09-01T08:29:40;5.00;;;3.40;;
4420;SDS011;11824;51.178;13.546;2022-09-01T08:32:09;5.77;;;3.70;;
4420;SDS011;11824;51.178;13.546;2022-09-01T08:34:38;5.50;;;3.97;;
4420;SDS011;11824;51.178;13.546;2022-09-01T08:37:08;4.40;;;3.60;;
4420;SDS011;11824;51.178;13.546;2022-09-01T08:39:39;7.50;;;4.20;;
4420;SDS011;11824;51.178;13.546;2022-09-01T08:42:11;4.50;;;3.73;;
4420;SDS011;11824;51.178;13.546;2022-09-01T08:44:48;4.63;;;3.60;;
4420;SDS011;11824;51.178;13.546;2022-09-01T08:47:24;5.27;;;4.53;;
4420;SDS011;11824;51.178;13.546;2022-09-01T08:50:09;6.97;;;4.83;;
4420;SDS011;11824;51.178;13.546;2022-09-01T08:52:39;4.97;;;3.70;;
4420;SDS011;11824;51.178;13.546;2022-09-01T08:55:15;6.97;;;3.47;;
4420;SDS011;11824;51.178;13.546;2022-09-01T08:57:51;8.50;;;4.37;;
4420;SDS011;11824;51.178;13.546;2022-09-01T09:00:26;6.50;;;4.17;;
4420;SDS011;11824;51.178;13.546;2022-09-01T09:03:00;10.93;;;3.97;;
4420;SDS011;11824;51.178;13.546;2022-09-01T09:05:41;8.90;;;4.50;;
4420;SDS011;11824;51.178;13.546;2022-09-01T09:08:29;8.47;;;4.80;;
4420;SDS011;11824;51.178;13.546;2022-09-01T09:11:19;10.70;;;5.13;;
4420;SDS011;11824;51.178;13.546;2022-09-01T09:14:08;7.03;;;4.50;;
4420;SDS011;11824;51.178;13.546;2022-09-01T09:16:42;12.50;;;4.83;;
4420;SDS011;11824;51.178;13.546;2022-09-01T09:19:20;7.63;;;4.10;;
4420;SDS011;11824;51.178;13.546;2022-09-01T09:22:01;12.80;;;4.20;;
4420;SDS011;11824;51.178;13.546;2022-09-01T09:24:33;6.27;;;3.50;;
4420;SDS011;11824;51.178;13.546;2022-09-01T09:27:24;6.20;;;4.50;;
4420;SDS011;11824;51.178;13.546;2022-09-01T09:29:57;8.00;;;3.60;;
4420;SDS011;11824;51.178;13.546;2022-09-01T09:32:45;7.60;;;3.97;;
4420;SDS011;11824;51.178;13.546;2022-09-01T09:35:36;13.93;;;5.43;;
4420;SDS011;11824;51.178;13.546;2022-09-01T09:38:15;5.07;;;4.13;;
4420;SDS011;11824;51.178;13.546;2022-09-01T09:40:55;10.70;;;4.07;;
4420;SDS011;11824;51.178;13.546;2022-09-01T09:43:48;7.03;;;4.07;;
4420;SDS011;11824;51.178;13.546;2022-09-01T09:46:25;9.50;;;4.37;;
4420;SDS011;11824;51.178;13.546;2022-09-01T09:49:06;8.63;;;4.80;;
4420;SDS011;11824;51.178;13.546;2022-09-01T09:51:38;4.63;;;3.40;;
4420;SDS011;11824;51.178;13.546;2022-09-01T09:54:10;8.10;;;3.70;;
4420;SDS011;11824;51.178;13.546;2022-09-01T09:56:41;6.73;;;3.83;;
4420;SDS011;11824;51.178;13.546;2022-09-01T09:59:20;7.33;;;4.63;;
4420;SDS011;11824;51.178;13.546;2022-09-01T10:02:15;11.10;;;4.60;;
4420;SDS011;11824;51.178;13.546;2022-09-01T10:04:53;7.13;;;4.10;;
4420;SDS011;11824;51.178;13.546;2022-09-01T10:07:24;9.80;;;4.47;;
4420;SDS011;11824;51.178;13.546;2022-09-01T10:09:58;9.07;;;4.03;;
4420;SDS011;11824;51.178;13.546;2022-09-01T10:12:30;5.70;;;3.90;;
4420;SDS011;11824;51.178;13.546;2022-09-01T10:15:03;8.13;;;4.03;;
4420;SDS011;11824;51.178;13.546;2022-09-01T10:17:39;8.77;;;3.70;;
4420;SDS011;11824;51.178;13.546;2022-09-01T10:20:12;11.33;;;3.90;;
4420;SDS011;11824;51.178;13.546;2022-09-01T10:22:46;7.27;;;3.50;;
4420;SDS011;11824;51.178;13.546;2022-09-01T10:25:18;10.27;;;3.87;;
4420;SDS011;11824;51.178;13.546;2022-09-01T10:27:49;8.03;;;3.80;;
4420;SDS011;11824;51.178;13.546;2022-09-01T10:30:26;10.70;;;3.87;;
4420;SDS011;11824;51.178;13.546;2022-09-01T10:32:57;6.67;;;4.00;;
4420;SDS011;11824;51.178;13.546;2022-09-01T10:35:45;8.13;;;4.13;;
4420;SDS011;11824;51.178;13.546;2022-09-01T10:38:16;12.00;;;5.23;;
4420;SDS011;11824;51.178;13.546;2022-09-01T10:40:48;9.30;;;5.60;;
4420;SDS011;11824;51.178;13.546;2022-09-01T10:43:40;4.47;;;4.03;;
4420;SDS011;11824;51.178;13.546;2022-09-01T10:46:40;9.30;;;5.23;;
4420;SDS011;11824;51.178;13.546;2022-09-01T10:49:20;7.40;;;5.57;;
4420;SDS011;11824;51.178;13.546;2022-09-01T10:55:20;11.13;;;4.53;;
4420;SDS011;11824;51.178;13.546;2022-09-01T10:57:59;6.40;;;3.60;;
4420;SDS011;11824;51.178;13.546;2022-09-01T11:01:09;7.10;;;3.30;;
4420;SDS011;11824;51.178;13.546;2022-09-01T11:03:50;6.00;;;3.73;;
4420;SDS011;11824;51.178;13.546;2022-09-01T11:06:32;13.87;;;4.80;;
4420;SDS011;11824;51.178;13.546;2022-09-01T11:09:37;15.13;;;4.00;;
4420;SDS011;11824;51.178;13.546;2022-09-01T11:12:11;4.10;;;3.70;;
4420;SDS011;11824;51.178;13.546;2022-09-01T11:14:56;4.23;;;3.50;;
4420;SDS011;11824;51.178;13.546;2022-09-01T11:17:27;6.97;;;3.57;;
4420;SDS011;11824;51.178;13.546;2022-09-01T11:20:06;6.80;;;2.87;;
4420;SDS011;11824;51.178;13.546;2022-09-01T11:22:37;8.63;;;3.40;;
4420;SDS011;11824;51.178;13.546;2022-09-01T11:28:40;13.83;;;3.30;;
4420;SDS011;11824;51.178;13.546;2022-09-01T11:31:15;8.90;;;2.87;;
4420;SDS011;11824;51.178;13.546;2022-09-01T11:33:58;4.40;;;2.50;;
4420;SDS011;11824;51.178;13.546;2022-09-01T11:36:59;7.53;;;3.27;;
4420;SDS011;11824;51.178;13.546;2022-09-01T11:39:33;4.33;;;2.97;;
4420;SDS011;11824;51.178;13.546;2022-09-01T11:42:12;7.77;;;3.43;;
4420;SDS011;11824;51.178;13.546;2022-09-01T11:44:50;13.97;;;3.13;;
4420;SDS011;11824;51.178;13.546;2022-09-01T11:47:24;8.03;;;2.80;;
4420;SDS011;11824;51.178;13.546;2022-09-01T11:49:55;9.30;;;3.37;;
4420;SDS011;11824;51.178;13.546;2022-09-01T11:52:29;5.07;;;2.37;;
4420;SDS011;11824;51.178;13.546;2022-09-01T11:55:01;7.63;;;3.20;;
4420;SDS011;11824;51.178;13.546;2022-09-01T11:57:38;4.67;;;3.43;;
4420;SDS011;11824;51.178;13.546;2022-09-01T12:00:08;4.60;;;2.53;;
4420;SDS011;11824;51.178;13.546;2022-09-01T12:02:42;10.87;;;3.17;;
4420;SDS011;11824;51.178;13.546;2022-09-01T12:05:24;2.47;;;2.27;;
4420;SDS011;11824;51.178;13.546;2022-09-01T12:07:57;4.77;;;2.37;;
4420;SDS011;11824;51.178;13.546;2022-09-01T12:10:29;3.90;;;2.70;;
4420;SDS011;11824;51.178;13.546;2022-09-01T12:13:01;7.57;;;3.00;;
4420;SDS011;11824;51.178;13.546;2022-09-01T12:15:32;10.90;;;2.90;;
4420;SDS011;11824;51.178;13.546;2022-09-01T12:18:22;7.10;;;2.67;;
4420;SDS011;11824;51.178;13.546;2022-09-01T12:20:54;4.40;;;2.57;;
4420;SDS011;11824;51.178;13.546;2022-09-01T12:23:27;7.13;;;2.37;;
4420;SDS011;11824;51.178;13.546;2022-09-01T12:25:58;5.73;;;2.60;;
4420;SDS011;11824;51.178;13.546;2022-09-01T12:28:30;4.30;;;2.60;;
4420;SDS011;11824;51.178;13.546;2022-09-01T12:31:01;6.00;;;2.50;;
4420;SDS011;11824;51.178;13.546;2022-09-01T12:33:33;4.57;;;1.97;;
4420;SDS011;11824;51.178;13.546;2022-09-01T12:36:12;4.80;;;2.40;;
4420;SDS011;11824;51.178;13.546;2022-09-01T12:38:47;4.10;;;2.17;;
4420;SDS011;11824;51.178;13.546;2022-09-01T12:41:23;3.50;;;2.20;;
4420;SDS011;11824;51.178;13.546;2022-09-01T12:46:56;6.40;;;2.47;;
4420;SDS011;11824;51.178;13.546;2022-09-01T12:49:33;5.50;;;2.30;;
4420;SDS011;11824;51.178;13.546;2022-09-01T12:52:20;8.03;;;3.57;;
4420;SDS011;11824;51.178;13.546;2022-09-01T12:54:53;5.90;;;2.07;;
4420;SDS011;11824;51.178;13.546;2022-09-01T12:57:36;2.70;;;1.97;;
4420;SDS011;11824;51.178;13.546;2022-09-01T13:00:15;2.57;;;1.90;;
4420;SDS011;11824;51.178;13.546;2022-09-01T13:02:47;5.07;;;2.40;;
4420;SDS011;11824;51.178;13.546;2022-09-01T13:05:19;7.30;;;2.30;;
4420;SDS011;11824;51.178;13.546;2022-09-01T13:07:59;4.30;;;1.67;;
4420;SDS011;11824;51.178;13.546;2022-09-01T13:10:34;3.10;;;1.90;;
4420;SDS011;11824;51.178;13.546;2022-09-01T13:13:06;3.43;;;1.70;;
4420;SDS011;11824;51.178;13.546;2022-09-01T13:15:37;4.57;;;2.37;;
4420;SDS011;11824;51.178;13.546;2022-09-01T13:18:08;5.30;;;2.10;;
4420;SDS011;11824;51.178;13.546;2022-09-01T13:20:37;4.00;;;1.80;;
4420;SDS011;11824;51.178;13.546;2022-09-01T13:23:07;2.50;;;2.10;;
4420;SDS011;11824;51.178;13.546;2022-09-01T13:25:39;5.60;;;2.00;;
4420;SDS011;11824;51.178;13.546;2022-09-01T13:28:09;5.53;;;1.90;;
4420;SDS011;11824;51.178;13.546;2022-09-01T13:30:40;2.13;;;1.70;;
4420;SDS011;11824;51.178;13.546;2022-09-01T13:33:10;2.07;;;1.57;;
4420;SDS011;11824;51.178;13.546;2022-09-01T13:35:48;4.77;;;1.47;;
4420;SDS011;11824;51.178;13.546;2022-09-01T13:38:18;2.40;;;1.50;;
4420;SDS011;11824;51.178;13.546;2022-09-01T13:40:49;1.27;;;1.17;;
4420;SDS011;11824;51.178;13.546;2022-09-01T13:43:20;2.60;;;2.17;;
4420;SDS011;11824;51.178;13.546;2022-09-01T13:45:54;1.20;;;1.10;;
4420;SDS011;11824;51.178;13.546;2022-09-01T13:48:25;2.50;;;1.57;;
4420;SDS011;11824;51.178;13.546;2022-09-01T13:51:22;6.53;;;2.30;;
4420;SDS011;11824;51.178;13.546;2022-09-01T13:53:53;3.80;;;1.60;;
4420;SDS011;11824;51.178;13.546;2022-09-01T13:56:24;3.20;;;1.70;;
4420;SDS011;11824;51.178;13.546;2022-09-01T13:58:53;2.50;;;1.90;;
4420;SDS011;11824;51.178;13.546;2022-09-01T14:01:24;3.10;;;1.90;;
4420;SDS011;11824;51.178;13.546;2022-09-01T14:03:53;9.07;;;2.03;;
4420;SDS011;11824;51.178;13.546;2022-09-01T14:06:25;6.23;;;2.33;;
4420;SDS011;11824;51.178;13.546;2022-09-01T14:08:56;3.70;;;2.40;;
4420;SDS011;11824;51.178;13.546;2022-09-01T14:11:27;1.80;;;1.70;;
4420;SDS011;11824;51.178;13.546;2022-09-01T14:13:57;5.73;;;1.90;;
4420;SDS011;11824;51.178;13.546;2022-09-01T14:16:27;3.07;;;1.60;;
4420;SDS011;11824;51.178;13.546;2022-09-01T14:18:56;2.40;;;1.70;;
4420;SDS011;11824;51.178;13.546;2022-09-01T14:21:25;3.30;;;1.67;;
4420;SDS011;11824;51.178;13.546;2022-09-01T14:23:55;3.43;;;1.73;;
4420;SDS011;11824;51.178;13.546;2022-09-01T14:26:25;2.20;;;1.27;;
4420;SDS011;11824;51.178;13.546;2022-09-01T14:28:55;4.30;;;1.67;;
4420;SDS011;11824;51.178;13.546;2022-09-01T14:31:27;1.70;;;1.50;;
4420;SDS011;11824;51.178;13.546;2022-09-01T14:33:57;3.03;;;1.43;;
4420;SDS011;11824;51.178;13.546;2022-09-01T14:36:26;3.23;;;1.50;;
4420;SDS011;11824;51.178;13.546;2022-09-01T14:38:55;4.73;;;1.87;;
4420;SDS011;11824;51.178;13.546;2022-09-01T14:41:24;2.87;;;1.87;;
4420;SDS011;11824;51.178;13.546;2022-09-01T14:43:55;3.77;;;1.57;;
4420;SDS011;11824;51.178;13.546;2022-09-01T14:46:28;3.87;;;2.50;;
4420;SDS011;11824;51.178;13.546;2022-09-01T14:48:59;3.50;;;1.70;;
4420;SDS011;11824;51.178;13.546;2022-09-01T14:51:28;4.70;;;1.77;;
4420;SDS011;11824;51.178;13.546;2022-09-01T14:54:19;1.60;;;1.50;;
4420;SDS011;11824;51.178;13.546;2022-09-01T14:56:48;3.40;;;1.90;;
4420;SDS011;11824;51.178;13.546;2022-09-01T14:59:38;6.63;;;1.90;;
4420;SDS011;11824;51.178;13.546;2022-09-01T15:02:08;1.63;;;1.53;;
4420;SDS011;11824;51.178;13.546;2022-09-01T15:04:37;1.87;;;1.43;;
4420;SDS011;11824;51.178;13.546;2022-09-01T15:07:07;12.33;;;1.97;;
4420;SDS011;11824;51.178;13.546;2022-09-01T15:09:38;7.50;;;1.73;;
4420;SDS011;11824;51.178;13.546;2022-09-01T15:12:07;3.67;;;1.60;;
4420;SDS011;11824;51.178;13.546;2022-09-01T15:14:36;3.77;;;1.20;;
4420;SDS011;11824;51.178;13.546;2022-09-01T15:17:07;4.03;;;1.93;;
4420;SDS011;11824;51.178;13.546;2022-09-01T15:19:35;1.80;;;1.33;;
4420;SDS011;11824;51.178;13.546;2022-09-01T15:22:07;3.20;;;2.20;;
4420;SDS011;11824;51.178;13.546;2022-09-01T15:24:39;1.63;;;1.53;;
4420;SDS011;11824;51.178;13.546;2022-09-01T15:27:08;5.43;;;1.47;;
4420;SDS011;11824;51.178;13.546;2022-09-01T15:29:37;3.33;;;1.47;;
4420;SDS011;11824;51.178;13.546;2022-09-01T15:32:13;7.50;;;1.20;;
4420;SDS011;11824;51.178;13.546;2022-09-01T15:34:53;2.60;;;1.70;;
4420;SDS011;11824;51.178;13.546;2022-09-01T15:37:22;1.43;;;1.23;;